createdAt,value
2018-05-13T00:00:56.981Z,59.15
2018-05-13T00:03:23.677Z,58.98
2018-05-13T00:05:49.529Z,59.12
2018-05-13T00:08:16.173Z,59.16
2018-05-13T00:10:43.004Z,59.17
2018-05-13T00:13:09.680Z,59.11
2018-05-13T00:15:35.475Z,59.24
2018-05-13T00:18:01.348Z,59.18
2018-05-13T00:20:27.146Z,59.32
2018-05-13T00:22:52.947Z,59.15
2018-05-13T00:25:19.689Z,59.07
2018-05-13T00:27:45.484Z,59.01
2018-05-13T00:30:12.145Z,59.27
2018-05-13T00:32:37.944Z,59.21
2018-05-13T00:35:04.729Z,59.23
2018-05-13T00:37:31.498Z,59.21
2018-05-13T00:39:57.296Z,59.18
2018-05-13T00:42:24.057Z,59.13
2018-05-13T00:44:50.888Z,59.32
2018-05-13T00:47:17.493Z,59.17
2018-05-13T00:49:44.379Z,59.26
2018-05-13T00:52:10.193Z,59.18
2018-05-13T00:54:42.360Z,59.20
2018-05-13T00:57:09.173Z,59.40
2018-05-13T00:59:35.920Z,59.31
2018-05-13T01:02:02.661Z,59.08
2018-05-13T01:04:28.460Z,59.19
2018-05-13T01:06:54.292Z,59.23
2018-05-13T01:09:20.087Z,59.11
2018-05-13T01:11:45.888Z,59.24
2018-05-13T01:14:11.684Z,59.27
2018-05-13T01:16:37.488Z,59.21
2018-05-13T01:19:04.276Z,59.23
2018-05-13T01:21:30.109Z,59.38
2018-05-13T01:23:55.904Z,59.16
2018-05-13T01:26:21.748Z,59.24
2018-05-13T01:28:47.638Z,59.27
2018-05-13T01:31:13.442Z,59.29
2018-05-13T01:33:39.248Z,59.21
2018-05-13T01:36:05.086Z,59.18
2018-05-13T01:38:30.885Z,59.24
2018-05-13T01:40:56.689Z,59.19
2018-05-13T01:43:22.492Z,59.20
2018-05-13T01:45:48.301Z,59.12
2018-05-13T01:48:14.145Z,59.21
2018-05-13T01:50:40.016Z,59.29
2018-05-13T01:53:05.863Z,59.30
2018-05-13T01:55:31.665Z,59.39
2018-05-13T01:57:57.470Z,59.38
2018-05-13T02:00:23.281Z,59.43
2018-05-13T02:02:49.125Z,59.50
2018-05-13T02:05:14.924Z,59.57
2018-05-13T02:07:40.721Z,59.62
2018-05-13T02:10:06.525Z,59.63
2018-05-13T02:12:32.428Z,59.65
2018-05-13T02:14:58.239Z,59.76
2018-05-13T02:17:24.051Z,59.78
2018-05-13T02:19:49.853Z,59.52
2018-05-13T02:22:15.659Z,59.62
2018-05-13T02:24:41.466Z,59.61
2018-05-13T02:27:07.265Z,59.65
2018-05-13T02:29:33.105Z,59.65
2018-05-13T02:31:58.941Z,59.80
2018-05-13T02:34:24.781Z,59.71
2018-05-13T02:36:50.626Z,59.83
2018-05-13T02:39:16.465Z,59.78
2018-05-13T02:41:42.305Z,59.91
2018-05-13T02:44:08.157Z,59.79
2018-05-13T02:46:33.957Z,59.79
2018-05-13T02:48:59.771Z,59.89
2018-05-13T02:51:26.352Z,59.80
2018-05-13T02:53:52.157Z,59.93
2018-05-13T02:56:18.020Z,59.80
2018-05-13T02:58:43.826Z,59.77
2018-05-13T03:01:09.628Z,59.77
2018-05-13T03:03:35.434Z,59.79
2018-05-13T03:06:01.241Z,59.98
2018-05-13T03:08:27.105Z,59.91
2018-05-13T03:10:52.905Z,59.88
2018-05-13T03:13:18.704Z,60.02
2018-05-13T03:15:44.521Z,59.85
2018-05-13T03:18:10.324Z,59.92
2018-05-13T03:20:36.202Z,59.89
2018-05-13T03:23:02.043Z,59.78
2018-05-13T03:25:27.885Z,59.83
2018-05-13T03:27:53.688Z,59.96
2018-05-13T03:30:19.533Z,59.83
2018-05-13T03:32:45.332Z,59.85
2018-05-13T03:35:11.176Z,60.00
2018-05-13T03:37:36.977Z,60.00
2018-05-13T03:40:02.820Z,59.88
2018-05-13T03:42:28.665Z,59.95
2018-05-13T03:44:54.464Z,59.90
2018-05-13T03:47:20.310Z,59.99
2018-05-13T03:49:46.159Z,59.89
2018-05-13T03:52:11.955Z,59.87
2018-05-13T03:54:37.756Z,59.95
2018-05-13T03:57:03.672Z,60.04
2018-05-13T03:59:31.169Z,59.98
2018-05-13T04:01:57.013Z,60.07
2018-05-13T04:04:22.823Z,59.96
2018-05-13T04:06:48.628Z,60.18
2018-05-13T04:09:20.586Z,59.77
2018-05-13T04:11:52.569Z,60.03
2018-05-13T04:14:24.564Z,59.95
2018-05-13T04:16:50.365Z,60.00
2018-05-13T04:19:16.167Z,59.93
2018-05-13T04:21:42.009Z,59.77
2018-05-13T04:24:07.804Z,59.82
2018-05-13T04:26:33.613Z,59.84
2018-05-13T04:28:59.412Z,59.81
2018-05-13T04:31:25.208Z,59.78
2018-05-13T04:33:51.062Z,59.78
2018-05-13T04:36:16.864Z,59.77
2018-05-13T04:38:42.664Z,60.06
2018-05-13T04:41:08.460Z,59.81
2018-05-13T04:43:34.257Z,59.83
2018-05-13T04:46:00.056Z,59.82
2018-05-13T04:48:25.859Z,59.77
2018-05-13T04:50:51.703Z,59.69
2018-05-13T04:53:17.504Z,59.73
2018-05-13T04:55:43.303Z,59.58
2018-05-13T04:58:09.106Z,59.55
2018-05-13T05:00:34.904Z,59.65
2018-05-13T05:03:00.749Z,59.50
2018-05-13T05:05:26.557Z,59.62
2018-05-13T05:07:52.364Z,59.54
2018-05-13T05:10:18.175Z,59.53
2018-05-13T05:12:43.978Z,59.62
2018-05-13T05:15:09.785Z,59.64
2018-05-13T05:17:35.583Z,59.63
2018-05-13T05:20:01.428Z,59.82
2018-05-13T05:22:27.236Z,59.70
2018-05-13T05:24:53.082Z,59.65
2018-05-13T05:27:18.884Z,59.45
2018-05-13T05:29:44.724Z,59.58
2018-05-13T05:32:10.526Z,59.59
2018-05-13T05:34:36.361Z,59.54
2018-05-13T05:37:02.166Z,59.60
2018-05-13T05:39:27.970Z,59.52
2018-05-13T05:41:53.779Z,59.67
2018-05-13T05:44:19.585Z,59.71
2018-05-13T05:46:45.432Z,59.61
2018-05-13T05:49:11.233Z,59.55
2018-05-13T05:51:37.088Z,59.66
2018-05-13T05:54:02.893Z,59.51
2018-05-13T05:56:28.709Z,59.59
2018-05-13T05:58:54.513Z,59.66
2018-05-13T06:01:20.312Z,59.54
2018-05-13T06:03:46.117Z,59.58
2018-05-13T06:06:11.925Z,59.51
2018-05-13T06:08:37.770Z,59.65
2018-05-13T06:11:04.550Z,59.54
2018-05-13T06:13:30.402Z,59.54
2018-05-13T06:15:56.202Z,59.61
2018-05-13T06:18:22.111Z,59.56
2018-05-13T06:20:47.912Z,59.65
2018-05-13T06:23:13.750Z,59.73
2018-05-13T06:25:39.595Z,59.85
2018-05-13T06:28:05.433Z,59.77
2018-05-13T06:30:31.280Z,59.74
2018-05-13T06:32:57.164Z,59.75
2018-05-13T06:35:23.015Z,59.77
2018-05-13T06:37:48.824Z,59.72
2018-05-13T06:40:14.628Z,59.62
2018-05-13T06:42:40.430Z,59.71
2018-05-13T06:45:06.263Z,59.62
2018-05-13T06:47:32.152Z,59.92
2018-05-13T06:49:57.956Z,59.94
2018-05-13T06:52:23.801Z,59.68
2018-05-13T06:54:49.605Z,59.86
2018-05-13T06:57:16.473Z,59.78
2018-05-13T06:59:42.897Z,59.91
2018-05-13T07:02:08.705Z,59.92
2018-05-13T07:04:34.508Z,59.73
2018-05-13T07:07:00.308Z,59.87
2018-05-13T07:09:26.113Z,59.91
2018-05-13T07:11:51.962Z,59.63
2018-05-13T07:14:17.845Z,59.85
2018-05-13T07:16:43.612Z,59.85
2018-05-13T07:19:09.441Z,59.86
2018-05-13T07:21:35.249Z,59.85
2018-05-13T07:24:01.061Z,59.78
2018-05-13T07:26:26.869Z,59.82
2018-05-13T07:28:52.717Z,59.81
2018-05-13T07:31:18.520Z,59.84
2018-05-13T07:33:44.382Z,59.72
2018-05-13T07:36:10.188Z,59.79
2018-05-13T07:38:35.992Z,59.93
2018-05-13T07:41:01.802Z,59.77
2018-05-13T07:43:27.768Z,59.66
2018-05-13T07:45:53.521Z,59.70
2018-05-13T07:48:19.326Z,59.90
2018-05-13T07:50:45.138Z,59.85
2018-05-13T07:53:10.950Z,59.84
2018-05-13T07:55:36.785Z,59.69
2018-05-13T07:58:02.592Z,59.76
2018-05-13T08:00:28.462Z,59.91
2018-05-13T08:02:54.272Z,59.83
2018-05-13T08:05:20.161Z,59.93
2018-05-13T08:07:45.964Z,59.83
2018-05-13T08:10:11.817Z,59.86
2018-05-13T08:12:38.546Z,59.77
2018-05-13T08:15:04.404Z,59.81
2018-05-13T08:17:30.265Z,60.05
2018-05-13T08:19:56.078Z,59.89
2018-05-13T08:22:21.891Z,59.92
2018-05-13T08:24:47.692Z,59.80
2018-05-13T08:27:13.593Z,59.95
2018-05-13T08:29:39.402Z,59.96
2018-05-13T08:32:05.407Z,59.95
2018-05-13T08:34:31.255Z,60.20
2018-05-13T08:36:57.149Z,59.93
2018-05-13T08:39:24.148Z,59.99
2018-05-13T08:41:50.169Z,60.03
2018-05-13T08:44:16.021Z,59.94
2018-05-13T08:46:43.007Z,59.95
2018-05-13T08:49:10.723Z,60.11
2018-05-13T08:51:37.836Z,59.92
2018-05-13T08:54:03.904Z,59.98
2018-05-13T08:56:30.978Z,59.82
2018-05-13T08:58:58.997Z,59.84
2018-05-13T09:01:26.567Z,59.92
2018-05-13T09:03:52.752Z,59.89
2018-05-13T09:06:18.723Z,59.90
2018-05-13T09:08:44.542Z,59.80
2018-05-13T09:11:10.395Z,59.89
2018-05-13T09:13:36.324Z,59.98
2018-05-13T09:16:02.201Z,59.87
2018-05-13T09:18:28.054Z,60.00
2018-05-13T09:20:53.899Z,60.00
2018-05-13T09:23:19.711Z,59.82
2018-05-13T09:25:45.520Z,59.90
2018-05-13T09:28:11.449Z,59.91
2018-05-13T09:30:37.248Z,59.80
2018-05-13T09:33:03.115Z,59.97
2018-05-13T09:35:28.981Z,59.89
2018-05-13T09:37:54.782Z,59.87
2018-05-13T09:40:20.598Z,59.87
2018-05-13T09:42:46.463Z,59.90
2018-05-13T09:45:12.268Z,59.97
2018-05-13T09:47:38.068Z,59.93
2018-05-13T09:50:03.893Z,60.00
2018-05-13T09:52:29.705Z,59.86
2018-05-13T09:54:55.509Z,59.96
2018-05-13T09:57:21.321Z,59.90
2018-05-13T09:59:47.162Z,59.82
2018-05-13T10:02:12.969Z,60.08
2018-05-13T10:04:38.847Z,59.94
2018-05-13T10:07:04.773Z,59.89
2018-05-13T10:09:30.661Z,59.84
2018-05-13T10:11:56.408Z,59.95
2018-05-13T10:14:22.212Z,59.77
2018-05-13T10:16:48.022Z,59.89
2018-05-13T10:19:13.824Z,59.82
2018-05-13T10:21:39.629Z,59.95
2018-05-13T10:24:05.436Z,59.86
2018-05-13T10:26:31.250Z,59.92
2018-05-13T10:28:57.148Z,59.86
2018-05-13T10:31:23.893Z,59.84
2018-05-13T10:33:49.703Z,59.93
2018-05-13T10:36:16.596Z,60.02
2018-05-13T10:38:42.344Z,59.96
2018-05-13T10:41:08.194Z,60.01
2018-05-13T10:43:33.996Z,59.89
2018-05-13T10:45:59.853Z,59.89
2018-05-13T10:48:25.665Z,59.88
2018-05-13T10:50:51.567Z,59.96
2018-05-13T10:53:17.324Z,59.77
2018-05-13T10:55:43.133Z,59.78
2018-05-13T10:58:08.945Z,59.85
2018-05-13T11:00:34.756Z,59.68
2018-05-13T11:03:00.782Z,59.68
2018-05-13T11:05:26.591Z,59.71
2018-05-13T11:07:52.400Z,59.82
2018-05-13T11:10:18.298Z,59.85
2018-05-13T11:12:44.049Z,59.92
2018-05-13T11:15:09.978Z,59.66
2018-05-13T11:17:35.780Z,59.62
2018-05-13T11:20:01.586Z,59.55
2018-05-13T11:22:27.388Z,59.50
2018-05-13T11:24:53.192Z,59.62
2018-05-13T11:27:19.001Z,59.82
2018-05-13T11:29:44.845Z,59.79
2018-05-13T11:32:10.648Z,59.90
2018-05-13T11:34:36.539Z,59.52
2018-05-13T11:37:02.357Z,59.62
2018-05-13T11:39:28.205Z,59.62
2018-05-13T11:41:54.025Z,59.66
2018-05-13T11:44:19.911Z,59.55
2018-05-13T11:46:45.815Z,59.67
2018-05-13T11:49:11.557Z,59.57
2018-05-13T11:51:37.356Z,59.50
2018-05-13T11:54:03.196Z,59.48
2018-05-13T11:56:29.094Z,59.51
2018-05-13T11:58:54.895Z,59.54
2018-05-13T12:01:20.700Z,59.45
2018-05-13T12:03:46.511Z,59.49
2018-05-13T12:06:12.317Z,59.47
2018-05-13T12:08:38.120Z,59.63
2018-05-13T12:11:03.925Z,59.57
2018-05-13T12:13:29.729Z,59.67
2018-05-13T12:15:56.635Z,59.57
2018-05-13T12:18:22.453Z,59.55
2018-05-13T12:20:48.256Z,59.72
2018-05-13T12:23:14.064Z,59.48
2018-05-13T12:25:39.876Z,59.53
2018-05-13T12:28:05.709Z,59.52
2018-05-13T12:30:31.549Z,59.67
2018-05-13T12:32:57.581Z,59.60
2018-05-13T12:35:23.381Z,59.67
2018-05-13T12:37:49.192Z,59.42
2018-05-13T12:40:15.001Z,59.69
2018-05-13T12:42:41.642Z,59.59
2018-05-13T12:45:07.468Z,59.48
2018-05-13T12:47:33.280Z,59.62
2018-05-13T12:49:59.136Z,59.40
2018-05-13T12:52:24.939Z,59.59
2018-05-13T12:54:50.745Z,59.22
2018-05-13T12:57:16.548Z,59.40
2018-05-13T12:59:42.380Z,59.38
2018-05-13T13:02:08.180Z,59.33
2018-05-13T13:04:34.021Z,59.46
2018-05-13T13:06:59.909Z,59.33
2018-05-13T13:09:26.083Z,59.22
2018-05-13T13:11:51.900Z,59.48
2018-05-13T13:14:17.703Z,59.39
2018-05-13T13:16:43.517Z,59.22
2018-05-13T13:19:09.325Z,59.30
2018-05-13T13:21:35.126Z,59.19
2018-05-13T13:24:00.929Z,59.29
2018-05-13T13:26:26.732Z,58.99
2018-05-13T13:28:52.532Z,59.28
2018-05-13T13:31:18.447Z,59.24
2018-05-13T13:33:44.251Z,59.30
2018-05-13T13:36:10.068Z,59.25
2018-05-13T13:38:35.872Z,59.23
2018-05-13T13:41:01.726Z,59.16
2018-05-13T13:43:27.529Z,59.22
2018-05-13T13:45:53.334Z,58.88
2018-05-13T13:48:19.138Z,58.66
2018-05-13T13:50:45.011Z,58.14
2018-05-13T13:53:10.808Z,57.44
2018-05-13T13:55:36.605Z,56.82
2018-05-13T13:58:02.635Z,56.83
2018-05-13T14:00:28.513Z,56.15
2018-05-13T14:02:54.317Z,55.77
2018-05-13T14:05:20.122Z,56.41
2018-05-13T14:07:45.928Z,54.82
2018-05-13T14:10:11.741Z,55.12
2018-05-13T14:12:38.824Z,55.50
2018-05-13T14:15:07.155Z,55.09
2018-05-13T14:17:33.077Z,55.13
2018-05-13T14:19:58.938Z,55.39
2018-05-13T14:22:24.729Z,55.25
2018-05-13T14:24:50.534Z,55.47
2018-05-13T14:27:16.338Z,55.10
2018-05-13T14:29:42.140Z,55.20
2018-05-13T14:32:07.940Z,55.41
2018-05-13T14:34:33.746Z,55.59
2018-05-13T14:36:59.556Z,55.51
2018-05-13T14:39:25.954Z,55.29
2018-05-13T14:41:51.798Z,55.27
2018-05-13T14:44:17.621Z,55.33
2018-05-13T14:46:43.468Z,55.87
2018-05-13T14:49:10.064Z,55.70
2018-05-13T14:51:35.909Z,55.51
2018-05-13T14:54:01.753Z,56.34
2018-05-13T14:56:27.566Z,56.16
2018-05-13T14:58:53.408Z,56.05
2018-05-13T15:01:19.252Z,56.13
2018-05-13T15:03:45.097Z,56.19
2018-05-13T15:06:10.934Z,56.44
2018-05-13T15:08:36.781Z,56.60
2018-05-13T15:11:02.588Z,56.62
2018-05-13T15:13:28.432Z,56.59
2018-05-13T15:15:54.233Z,56.36
2018-05-13T15:18:20.072Z,56.43
2018-05-13T15:20:45.873Z,56.34
2018-05-13T15:23:11.673Z,56.37
2018-05-13T15:25:37.577Z,56.64
2018-05-13T15:28:03.385Z,56.38
2018-05-13T15:30:29.245Z,56.64
2018-05-13T15:32:55.055Z,56.31
2018-05-13T15:35:20.865Z,56.71
2018-05-13T15:37:46.780Z,56.88
2018-05-13T15:40:12.678Z,57.00
2018-05-13T15:42:38.580Z,56.75
2018-05-13T15:45:05.296Z,56.24
2018-05-13T15:47:32.548Z,56.69
2018-05-13T15:49:58.509Z,56.55
2018-05-13T15:52:26.544Z,55.82
2018-05-13T15:54:53.407Z,56.62
2018-05-13T15:57:19.362Z,57.04
2018-05-13T15:59:45.168Z,57.00
2018-05-13T16:02:10.969Z,55.99
2018-05-13T16:04:36.778Z,56.98
2018-05-13T16:07:02.621Z,56.38
2018-05-13T16:09:28.425Z,56.76
2018-05-13T16:11:54.278Z,56.54
2018-05-13T16:14:20.080Z,56.67
2018-05-13T16:16:45.885Z,56.61
2018-05-13T16:19:11.875Z,56.96
2018-05-13T16:21:37.628Z,56.16
2018-05-13T16:24:03.641Z,57.18
2018-05-13T16:26:29.461Z,56.82
2018-05-13T16:28:55.300Z,56.98
2018-05-13T16:31:21.137Z,56.53
2018-05-13T16:33:46.946Z,56.59
2018-05-13T16:36:12.758Z,57.25
2018-05-13T16:38:38.605Z,57.01
2018-05-13T16:41:04.441Z,57.11
2018-05-13T16:43:30.248Z,57.26
2018-05-13T16:45:56.048Z,56.86
2018-05-13T16:48:21.853Z,56.34
2018-05-13T16:50:47.657Z,57.17
2018-05-13T16:53:13.476Z,57.45
2018-05-13T16:55:39.329Z,56.59
2018-05-13T16:58:05.133Z,56.55
2018-05-13T17:00:30.982Z,56.64
2018-05-13T17:02:56.780Z,56.82
2018-05-13T17:05:23.461Z,56.75
2018-05-13T17:07:49.264Z,57.12
2018-05-13T17:10:15.101Z,57.14
2018-05-13T17:12:40.917Z,56.95
2018-05-13T17:15:06.721Z,57.09
2018-05-13T17:17:32.617Z,56.95
2018-05-13T17:19:58.361Z,56.92
2018-05-13T17:22:24.169Z,57.21
2018-05-13T17:24:49.976Z,57.17
2018-05-13T17:27:15.776Z,57.23
2018-05-13T17:29:41.583Z,57.59
2018-05-13T17:32:07.393Z,57.17
2018-05-13T17:34:33.192Z,57.27
2018-05-13T17:36:58.998Z,57.63
2018-05-13T17:39:24.841Z,56.68
2018-05-13T17:41:50.662Z,57.02
2018-05-13T17:44:16.466Z,57.10
2018-05-13T17:46:42.268Z,57.28
2018-05-13T17:49:08.080Z,56.31
2018-05-13T17:51:33.889Z,57.25
2018-05-13T17:53:59.697Z,56.50
2018-05-13T17:56:25.504Z,57.06
2018-05-13T17:58:51.316Z,56.89
2018-05-13T18:01:17.124Z,57.24
2018-05-13T18:03:44.006Z,57.46
2018-05-13T18:06:09.809Z,57.37
2018-05-13T18:08:35.642Z,57.26
2018-05-13T18:11:01.450Z,57.43
2018-05-13T18:13:27.848Z,57.54
2018-05-13T18:15:56.221Z,57.43
2018-05-13T18:18:22.075Z,57.24
2018-05-13T18:20:47.934Z,57.58
2018-05-13T18:23:13.782Z,57.60
2018-05-13T18:25:39.624Z,57.72
2018-05-13T18:28:05.430Z,57.61
2018-05-13T18:30:31.354Z,57.72
2018-05-13T18:32:57.154Z,57.78
2018-05-13T18:35:23.045Z,57.58
2018-05-13T18:37:48.888Z,57.61
2018-05-13T18:40:15.278Z,57.67
2018-05-13T18:42:41.110Z,57.77
2018-05-13T18:45:06.997Z,57.68
2018-05-13T18:47:32.797Z,57.76
2018-05-13T18:49:58.645Z,57.94
2018-05-13T18:52:24.453Z,57.63
2018-05-13T18:54:50.265Z,57.76
2018-05-13T18:57:16.268Z,57.91
2018-05-13T18:59:42.112Z,57.72
2018-05-13T19:02:07.973Z,57.90
2018-05-13T19:04:33.781Z,58.01
2018-05-13T19:06:59.586Z,57.31
2018-05-13T19:09:25.396Z,57.75
2018-05-13T19:11:51.201Z,57.69
2018-05-13T19:14:17.058Z,57.86
2018-05-13T19:16:42.915Z,57.89
2018-05-13T19:19:08.774Z,57.96
2018-05-13T19:21:34.625Z,57.97
2018-05-13T19:24:00.479Z,57.73
2018-05-13T19:26:26.308Z,57.91
2018-05-13T19:28:53.491Z,57.99
2018-05-13T19:31:19.443Z,58.03
2018-05-13T19:33:45.305Z,57.82
2018-05-13T19:36:11.114Z,57.93
2018-05-13T19:38:44.246Z,58.05
2018-05-13T19:41:11.097Z,58.01
2018-05-13T19:43:44.647Z,58.10
2018-05-13T19:46:10.857Z,58.20
2018-05-13T19:48:36.677Z,58.22
2018-05-13T19:51:02.787Z,58.12
2018-05-13T19:53:28.599Z,58.30
2018-05-13T19:55:54.410Z,58.24
2018-05-13T19:58:20.461Z,58.16
2018-05-13T20:00:46.290Z,58.26
2018-05-13T20:03:12.296Z,58.15
2018-05-13T20:05:38.334Z,58.06
2018-05-13T20:08:04.169Z,58.28
2018-05-13T20:10:30.033Z,58.19
2018-05-13T20:12:56.002Z,58.26
2018-05-13T20:15:21.853Z,58.10
2018-05-13T20:17:47.697Z,58.23
2018-05-13T20:20:13.660Z,58.28
2018-05-13T20:22:40.337Z,58.38
2018-05-13T20:25:06.133Z,58.21
2018-05-13T20:27:32.463Z,58.24
2018-05-13T20:29:58.274Z,58.29
2018-05-13T20:32:24.240Z,58.25
2018-05-13T20:34:50.422Z,58.24
2018-05-13T20:37:16.222Z,58.18
2018-05-13T20:39:42.128Z,58.23
2018-05-13T20:42:08.090Z,58.35
2018-05-13T20:44:33.929Z,58.22
2018-05-13T20:46:59.744Z,58.30
2018-05-13T20:49:25.549Z,58.43
2018-05-13T20:51:51.364Z,58.39
2018-05-13T20:54:17.336Z,58.34
2018-05-13T20:56:43.145Z,58.42
2018-05-13T20:59:09.028Z,58.21
2018-05-13T21:01:34.828Z,58.42
2018-05-13T21:04:00.633Z,58.32
2018-05-13T21:06:26.436Z,58.45
2018-05-13T21:08:52.285Z,58.36
2018-05-13T21:11:18.123Z,58.32
2018-05-13T21:13:43.921Z,58.54
2018-05-13T21:16:09.800Z,58.52
2018-05-13T21:18:35.564Z,58.39
2018-05-13T21:21:01.403Z,58.44
2018-05-13T21:23:27.209Z,58.47
2018-05-13T21:25:53.072Z,58.47
2018-05-13T21:28:18.975Z,58.51
2018-05-13T21:30:44.788Z,58.31
2018-05-13T21:33:10.590Z,58.56
2018-05-13T21:35:36.397Z,58.51
2018-05-13T21:38:02.286Z,58.30
2018-05-13T21:40:28.125Z,58.48
2018-05-13T21:42:53.938Z,58.46
2018-05-13T21:45:19.740Z,58.63
2018-05-13T21:47:45.544Z,58.62
2018-05-13T21:50:11.349Z,58.39
2018-05-13T21:52:37.162Z,58.42
2018-05-13T21:55:02.976Z,58.65
2018-05-13T21:57:28.777Z,58.45
2018-05-13T21:59:54.582Z,58.73
2018-05-13T22:02:20.386Z,58.60
2018-05-13T22:04:52.268Z,58.62
2018-05-13T22:07:18.203Z,58.83
2018-05-13T22:09:44.005Z,58.62
2018-05-13T22:12:09.818Z,58.71
2018-05-13T22:14:35.652Z,58.72
2018-05-13T22:17:01.456Z,58.93
2018-05-13T22:19:34.413Z,58.73
2018-05-13T22:22:00.212Z,59.01
2018-05-13T22:24:26.052Z,58.78
2018-05-13T22:26:51.853Z,58.87
2018-05-13T22:29:17.709Z,58.88
2018-05-13T22:31:43.513Z,58.87
2018-05-13T22:34:09.318Z,58.74
2018-05-13T22:36:35.191Z,58.56
2018-05-13T22:39:00.981Z,58.65
2018-05-13T22:41:26.893Z,58.59
2018-05-13T22:43:52.812Z,58.61
2018-05-13T22:46:18.681Z,58.67
2018-05-13T22:48:45.565Z,58.77
2018-05-13T22:51:11.373Z,58.68
2018-05-13T22:53:37.181Z,58.95
2018-05-13T22:56:03.031Z,58.44
2018-05-13T22:58:28.834Z,58.80
2018-05-13T23:00:55.147Z,58.58
2018-05-13T23:03:20.944Z,58.95
2018-05-13T23:05:46.745Z,58.79
2018-05-13T23:08:12.548Z,58.78
2018-05-13T23:10:38.353Z,58.85
2018-05-13T23:13:04.215Z,58.90
2018-05-13T23:15:30.023Z,58.75
2018-05-13T23:17:55.838Z,58.97
2018-05-13T23:20:21.813Z,58.85
2018-05-13T23:22:47.573Z,58.95
2018-05-13T23:25:13.374Z,58.42
2018-05-13T23:27:39.223Z,59.15
2018-05-13T23:30:05.028Z,58.85
2018-05-13T23:32:30.834Z,58.70
2018-05-13T23:34:56.638Z,58.67
2018-05-13T23:37:22.448Z,58.80
2018-05-13T23:39:48.287Z,58.73
2018-05-13T23:42:14.124Z,59.05
2018-05-13T23:44:40.029Z,58.68
2018-05-13T23:47:05.870Z,58.71
2018-05-13T23:49:31.779Z,58.84
2018-05-13T23:51:57.590Z,58.89
2018-05-13T23:54:23.433Z,58.41
2018-05-13T23:56:49.240Z,58.83
2018-05-13T23:59:15.032Z,58.71
